Flugwetter

[source: ADDS]
METAR
LOWL 271520Z AUTO 12006KT 080V160 9999 NCD 25/10 Q1020 NOSIG =
TAF
TAF LOWL 271115Z 2712/2812 11009KT 9999 FEW060 TX26/2714Z TN11/2804Z TEMPO 2720/2808 08005KT CAVOK =